createdAt,value
2023-04-23T00:00:27.048Z,8.68
2023-04-23T00:02:58.718Z,8.73
2023-04-23T00:05:29.396Z,8.63
2023-04-23T00:08:01.631Z,8.76
2023-04-23T00:10:30.488Z,8.81
2023-04-23T00:12:59.447Z,8.78
2023-04-23T00:15:28.713Z,8.77
2023-04-23T00:17:57.087Z,8.77
2023-04-23T00:20:25.299Z,8.73
2023-04-23T00:22:54.920Z,8.68
2023-04-23T00:25:23.421Z,8.65
2023-04-23T00:27:51.626Z,8.65
2023-04-23T00:30:19.977Z,8.60
2023-04-23T00:32:48.578Z,8.62
2023-04-23T00:35:17.023Z,8.57
2023-04-23T00:37:45.382Z,8.59
2023-04-23T00:40:15.266Z,8.56
2023-04-23T00:42:44.719Z,8.44
2023-04-23T00:45:13.413Z,8.46
2023-04-23T00:47:42.202Z,8.50
2023-04-23T00:50:11.510Z,8.44
2023-04-23T00:52:40.838Z,8.44
2023-04-23T00:55:09.957Z,8.50
2023-04-23T00:57:40.931Z,8.53
2023-04-23T01:00:12.195Z,8.61
2023-04-23T01:02:41.072Z,8.68
2023-04-23T01:05:11.605Z,8.68
2023-04-23T01:07:40.094Z,8.68
2023-04-23T01:10:10.855Z,8.67
2023-04-23T01:12:40.621Z,8.65
2023-04-23T01:15:10.486Z,8.70
2023-04-23T01:17:38.823Z,8.72
2023-04-23T01:20:09.669Z,8.70
2023-04-23T01:22:39.675Z,8.62
2023-04-23T01:25:10.337Z,8.68
2023-04-23T01:27:39.326Z,8.68
2023-04-23T01:30:08.794Z,8.66
2023-04-23T01:32:37.729Z,8.68
2023-04-23T01:35:08.384Z,8.62
2023-04-23T01:37:37.391Z,8.70
2023-04-23T01:40:08.911Z,8.74
2023-04-23T01:42:37.582Z,8.71
2023-04-23T01:45:08.042Z,8.73
2023-04-23T01:47:36.935Z,8.72
2023-04-23T01:50:05.591Z,8.76
2023-04-23T01:52:33.915Z,8.77
2023-04-23T01:55:02.389Z,8.81
2023-04-23T01:57:32.276Z,8.83
2023-04-23T02:00:08.158Z,8.85
2023-04-23T02:02:44.200Z,8.85
2023-04-23T02:05:14.691Z,8.89
2023-04-23T02:07:43.878Z,8.89
2023-04-23T02:10:12.833Z,8.81
2023-04-23T02:12:42.723Z,8.77
2023-04-23T02:15:12.438Z,8.77
2023-04-23T02:17:41.803Z,8.70
2023-04-23T02:20:11.835Z,8.70
2023-04-23T02:22:41.940Z,8.70
2023-04-23T02:25:11.092Z,8.71
2023-04-23T02:27:39.416Z,8.63
2023-04-23T02:30:11.587Z,8.59
2023-04-23T02:32:40.946Z,8.60
2023-04-23T02:35:10.577Z,8.57
2023-04-23T02:37:39.725Z,8.58
2023-04-23T02:40:09.360Z,8.51
2023-04-23T02:42:38.147Z,8.55
2023-04-23T02:45:07.926Z,8.57
2023-04-23T02:47:37.665Z,8.51
2023-04-23T02:50:07.801Z,8.56
2023-04-23T02:52:36.709Z,8.53
2023-04-23T02:55:05.646Z,8.59
2023-04-23T02:57:34.597Z,8.55
2023-04-23T03:00:05.928Z,8.60
2023-04-23T03:02:42.016Z,8.60
2023-04-23T03:05:11.194Z,8.60
2023-04-23T03:07:39.602Z,8.55
2023-04-23T03:10:09.027Z,8.49
2023-04-23T03:12:37.490Z,8.49
2023-04-23T03:15:07.468Z,8.53
2023-04-23T03:17:38.715Z,8.43
2023-04-23T03:20:11.642Z,8.43
2023-04-23T03:22:41.365Z,8.38
2023-04-23T03:25:10.484Z,8.38
2023-04-23T03:27:40.523Z,8.37
2023-04-23T03:30:11.125Z,8.41
2023-04-23T03:32:40.025Z,8.37
2023-04-23T03:35:10.821Z,8.42
2023-04-23T03:37:42.765Z,8.46
2023-04-23T03:40:11.687Z,8.50
2023-04-23T03:42:42.374Z,8.50
2023-04-23T03:45:14.272Z,8.52
2023-04-23T03:47:42.786Z,8.49
2023-04-23T03:50:13.927Z,8.45
2023-04-23T03:52:44.841Z,8.46
2023-04-23T03:55:21.171Z,8.44
2023-04-23T03:57:49.737Z,8.43
2023-04-23T04:00:27.526Z,8.45
2023-04-23T04:02:55.976Z,8.49
2023-04-23T04:05:28.897Z,8.44
2023-04-23T04:07:57.406Z,8.48
2023-04-23T04:10:27.230Z,8.45
2023-04-23T04:12:55.496Z,8.52
2023-04-23T04:15:24.460Z,8.56
2023-04-23T04:17:52.706Z,8.53
2023-04-23T04:20:20.996Z,8.50
2023-04-23T04:22:50.630Z,8.45
2023-04-23T04:25:18.933Z,8.46
2023-04-23T04:27:47.167Z,8.51
2023-04-23T04:30:15.870Z,8.58
2023-04-23T04:32:45.700Z,8.57
2023-04-23T04:35:14.487Z,8.57
2023-04-23T04:37:43.887Z,8.56
2023-04-23T04:40:15.219Z,8.58
2023-04-23T04:42:43.511Z,8.65
2023-04-23T04:45:12.365Z,8.67
2023-04-23T04:47:41.364Z,8.65
2023-04-23T04:50:10.347Z,8.60
2023-04-23T04:52:41.708Z,8.63
2023-04-23T04:55:11.012Z,8.64
2023-04-23T04:57:40.774Z,8.62
2023-04-23T05:00:23.613Z,8.68
2023-04-23T05:02:52.312Z,8.68
2023-04-23T05:05:21.475Z,8.73
2023-04-23T05:07:49.751Z,8.73
2023-04-23T05:10:18.178Z,8.72
2023-04-23T05:12:48.156Z,8.76
2023-04-23T05:15:16.566Z,8.79
2023-04-23T05:17:45.209Z,8.81
2023-04-23T05:20:14.429Z,8.88
2023-04-23T05:22:43.861Z,8.90
2023-04-23T05:25:12.876Z,8.94
2023-04-23T05:27:41.527Z,9.04
2023-04-23T05:30:12.411Z,9.15
2023-04-23T05:32:40.850Z,9.19
2023-04-23T05:35:09.914Z,9.23
2023-04-23T05:37:38.171Z,9.32
2023-04-23T05:40:07.936Z,9.37
2023-04-23T05:42:37.344Z,9.46
2023-04-23T05:45:08.550Z,9.54
2023-04-23T05:47:41.406Z,9.64
2023-04-23T05:50:11.653Z,9.78
2023-04-23T05:52:40.050Z,9.89
2023-04-23T05:55:09.786Z,10.01
2023-04-23T05:57:39.519Z,10.07
2023-04-23T06:00:11.852Z,10.14
2023-04-23T06:02:44.535Z,10.26
2023-04-23T06:05:13.496Z,10.25
2023-04-23T06:07:42.281Z,10.29
2023-04-23T06:10:10.961Z,10.30
2023-04-23T06:12:40.217Z,10.34
2023-04-23T06:15:09.728Z,10.37
2023-04-23T06:17:38.333Z,10.51
2023-04-23T06:20:11.896Z,10.60
2023-04-23T06:22:52.202Z,10.73
2023-04-23T06:25:20.582Z,10.98
2023-04-23T06:27:48.790Z,10.99
2023-04-23T06:30:22.225Z,11.10
2023-04-23T06:32:51.586Z,11.23
2023-04-23T06:35:21.640Z,11.28
2023-04-23T06:37:50.085Z,11.24
2023-04-23T06:40:18.560Z,11.28
2023-04-23T06:42:47.672Z,11.39
2023-04-23T06:45:21.468Z,11.53
2023-04-23T06:47:51.113Z,11.64
2023-04-23T06:50:19.488Z,11.51
2023-04-23T06:52:49.258Z,11.48
2023-04-23T06:55:17.490Z,11.58
2023-04-23T06:57:45.851Z,11.64
2023-04-23T07:00:14.726Z,11.75
2023-04-23T07:02:44.628Z,11.93
2023-04-23T07:05:13.083Z,12.06
2023-04-23T07:07:43.455Z,12.03
2023-04-23T07:10:15.025Z,12.06
2023-04-23T07:12:45.318Z,11.98
2023-04-23T07:15:13.644Z,12.00
2023-04-23T07:17:42.004Z,12.17
2023-04-23T07:20:10.695Z,12.19
2023-04-23T07:22:38.990Z,12.33
2023-04-23T07:25:08.770Z,12.37
2023-04-23T07:27:38.484Z,12.38
2023-04-23T07:30:08.145Z,12.42
2023-04-23T07:32:36.501Z,12.78
2023-04-23T07:35:05.420Z,12.93
2023-04-23T07:37:33.631Z,13.07
2023-04-23T07:40:02.456Z,12.93
2023-04-23T07:42:30.730Z,13.15
2023-04-23T07:45:00.584Z,13.19
2023-04-23T07:47:28.866Z,13.37
2023-04-23T07:49:57.128Z,13.43
2023-04-23T07:52:25.344Z,13.43
2023-04-23T07:54:53.652Z,13.29
2023-04-23T07:57:22.009Z,13.21
2023-04-23T07:59:50.644Z,13.31
2023-04-23T08:02:23.917Z,13.23
2023-04-23T08:04:52.474Z,13.38
2023-04-23T08:07:21.136Z,13.63
2023-04-23T08:09:49.446Z,13.93
2023-04-23T08:12:18.077Z,14.14
2023-04-23T08:14:47.414Z,13.98
2023-04-23T08:17:20.082Z,13.91
2023-04-23T08:19:48.372Z,13.89
2023-04-23T08:22:17.291Z,14.01
2023-04-23T08:24:46.409Z,14.06
2023-04-23T08:27:14.711Z,14.28
2023-04-23T08:29:43.144Z,14.33
2023-04-23T08:32:11.609Z,14.51
2023-04-23T08:34:41.245Z,14.29
2023-04-23T08:37:16.553Z,14.53
2023-04-23T08:39:51.763Z,14.66
2023-04-23T08:42:28.157Z,14.88
2023-04-23T08:44:56.787Z,14.92
2023-04-23T08:47:26.274Z,14.97
2023-04-23T08:49:56.641Z,14.84
2023-04-23T08:52:26.002Z,14.82
2023-04-23T08:54:55.358Z,15.19
2023-04-23T08:57:23.768Z,14.89
2023-04-23T08:59:53.335Z,15.03
2023-04-23T09:02:21.946Z,15.00
2023-04-23T09:04:51.896Z,14.82
2023-04-23T09:07:22.242Z,14.91
2023-04-23T09:09:50.710Z,14.88
2023-04-23T09:12:19.018Z,15.18
2023-04-23T09:14:47.260Z,15.24
2023-04-23T09:17:15.568Z,15.62
2023-04-23T09:19:44.378Z,15.88
2023-04-23T09:22:13.128Z,16.00
2023-04-23T09:24:44.473Z,16.15
2023-04-23T09:27:12.745Z,16.35
2023-04-23T09:29:41.372Z,16.20
2023-04-23T09:32:11.061Z,15.85
2023-04-23T09:34:39.373Z,15.26
2023-04-23T09:37:11.070Z,15.27
2023-04-23T09:39:40.946Z,15.32
2023-04-23T09:42:12.919Z,15.74
2023-04-23T09:44:41.226Z,15.83
2023-04-23T09:47:12.112Z,15.80
2023-04-23T09:49:47.894Z,15.74
2023-04-23T09:52:16.487Z,15.84
2023-04-23T09:54:46.454Z,15.34
2023-04-23T09:57:16.982Z,15.58
2023-04-23T09:59:47.844Z,15.69
2023-04-23T10:02:18.964Z,15.54
2023-04-23T10:05:00.688Z,15.38
2023-04-23T10:07:35.983Z,15.30
2023-04-23T10:10:04.521Z,15.41
2023-04-23T10:12:52.294Z,15.26
2023-04-23T10:15:22.570Z,15.82
2023-04-23T10:17:52.050Z,16.04
2023-04-23T10:20:22.835Z,15.62
2023-04-23T10:22:52.425Z,16.02
2023-04-23T10:25:22.418Z,16.01
2023-04-23T10:27:54.810Z,16.45
2023-04-23T10:30:24.018Z,16.31
2023-04-23T10:32:52.525Z,16.43
2023-04-23T10:35:20.833Z,16.29
2023-04-23T10:37:50.558Z,16.51
2023-04-23T10:40:24.797Z,16.25
2023-04-23T10:42:55.680Z,15.84
2023-04-23T10:45:25.739Z,15.68
2023-04-23T10:47:55.936Z,15.92
2023-04-23T10:50:26.353Z,15.39
2023-04-23T10:52:57.162Z,14.94
2023-04-23T10:55:27.471Z,14.81
2023-04-23T10:58:03.347Z,14.99
2023-04-23T11:00:46.491Z,15.25
2023-04-23T11:03:42.968Z,15.08
2023-04-23T11:06:15.690Z,14.69
2023-04-23T11:08:54.214Z,14.48
2023-04-23T11:11:39.909Z,14.78
2023-04-23T11:14:15.544Z,14.70
2023-04-23T11:16:44.258Z,14.64
2023-04-23T11:19:13.360Z,14.64
2023-04-23T11:22:01.619Z,15.15
2023-04-23T11:24:31.872Z,15.54
2023-04-23T11:27:01.226Z,15.52
2023-04-23T11:29:31.017Z,15.46
2023-04-23T11:32:02.914Z,15.59
2023-04-23T11:34:33.329Z,15.63
2023-04-23T11:37:05.012Z,15.70
2023-04-23T11:39:33.838Z,15.54
2023-04-23T11:42:03.353Z,15.45
2023-04-23T11:44:33.809Z,15.36
2023-04-23T11:47:03.094Z,15.00
2023-04-23T11:49:31.498Z,14.82
2023-04-23T11:52:01.822Z,14.60
2023-04-23T11:54:30.694Z,14.54
2023-04-23T11:56:59.881Z,14.97
2023-04-23T11:59:29.079Z,15.15
2023-04-23T12:01:59.970Z,15.08
2023-04-23T12:04:30.639Z,15.19
2023-04-23T12:07:00.376Z,15.36
2023-04-23T12:09:30.457Z,14.94
2023-04-23T12:11:59.365Z,14.98
2023-04-23T12:14:30.053Z,14.79
2023-04-23T12:17:09.905Z,14.73
2023-04-23T12:19:38.404Z,14.95
2023-04-23T12:22:08.556Z,14.89
2023-04-23T12:24:48.476Z,14.63
2023-04-23T12:27:20.398Z,14.88
2023-04-23T12:29:49.535Z,14.41
2023-04-23T12:32:22.965Z,14.36
2023-04-23T12:34:55.803Z,14.22
2023-04-23T12:37:26.847Z,14.23
2023-04-23T12:39:56.892Z,14.14
2023-04-23T12:42:25.845Z,14.30
2023-04-23T12:44:55.827Z,13.93
2023-04-23T12:47:25.804Z,13.67
2023-04-23T12:49:55.649Z,13.41
2023-04-23T12:52:24.050Z,13.33
2023-04-23T12:54:56.309Z,13.34
2023-04-23T12:57:25.280Z,13.16
2023-04-23T12:59:54.908Z,13.12
2023-04-23T13:02:25.983Z,12.92
2023-04-23T13:05:00.753Z,12.97
2023-04-23T13:07:29.515Z,12.80
2023-04-23T13:09:59.678Z,13.08
2023-04-23T13:12:28.276Z,13.10
2023-04-23T13:14:56.599Z,13.41
2023-04-23T13:17:28.531Z,13.19
2023-04-23T13:19:57.243Z,13.21
2023-04-23T13:22:28.716Z,13.27
2023-04-23T13:24:58.101Z,13.33
2023-04-23T13:27:29.234Z,13.43
2023-04-23T13:29:58.834Z,13.68
2023-04-23T13:32:32.128Z,13.91
2023-04-23T13:35:04.046Z,13.58
2023-04-23T13:37:33.628Z,13.66
2023-04-23T13:40:02.850Z,13.55
2023-04-23T13:42:32.303Z,13.43
2023-04-23T13:45:00.579Z,13.46
2023-04-23T13:47:33.354Z,13.55
2023-04-23T13:50:03.052Z,13.40
2023-04-23T13:52:31.803Z,13.50
2023-04-23T13:55:00.326Z,13.62
2023-04-23T13:57:28.757Z,13.49
2023-04-23T13:59:57.143Z,13.48
2023-04-23T14:02:25.487Z,13.38
2023-04-23T14:04:55.259Z,13.31
2023-04-23T14:07:23.802Z,13.30
2023-04-23T14:09:52.940Z,13.47
2023-04-23T14:12:21.542Z,13.69
2023-04-23T14:14:51.602Z,13.48
2023-04-23T14:17:19.846Z,13.40
2023-04-23T14:19:48.566Z,13.36
2023-04-23T14:22:18.325Z,13.19
2023-04-23T14:24:50.798Z,13.26
2023-04-23T14:27:19.171Z,13.17
2023-04-23T14:29:52.303Z,13.09
2023-04-23T14:32:20.945Z,13.07
2023-04-23T14:34:49.292Z,12.95
2023-04-23T14:37:19.015Z,12.99
2023-04-23T14:39:47.730Z,13.20
2023-04-23T14:42:15.987Z,13.36
2023-04-23T14:44:44.351Z,13.32
2023-04-23T14:47:12.626Z,13.45
2023-04-23T14:49:41.901Z,13.44
2023-04-23T14:52:11.139Z,13.49
2023-04-23T14:54:40.830Z,13.35
2023-04-23T14:57:09.222Z,13.66
2023-04-23T14:59:37.483Z,13.37
2023-04-23T15:02:05.960Z,13.44
2023-04-23T15:04:36.526Z,13.34
2023-04-23T15:07:04.948Z,13.73
2023-04-23T15:09:33.780Z,13.81
2023-04-23T15:12:07.003Z,13.96
2023-04-23T15:14:39.066Z,13.91
2023-04-23T15:17:07.395Z,14.08
2023-04-23T15:19:35.695Z,13.94
2023-04-23T15:22:04.075Z,14.14
2023-04-23T15:24:32.352Z,14.07
2023-04-23T15:27:01.243Z,13.82
2023-04-23T15:29:31.159Z,13.93
2023-04-23T15:31:59.683Z,13.85
2023-04-23T15:34:28.032Z,14.15
2023-04-23T15:36:56.262Z,14.11
2023-04-23T15:39:24.865Z,13.93
2023-04-23T15:41:53.799Z,13.96
2023-04-23T15:44:22.065Z,13.89
2023-04-23T15:46:51.772Z,13.82
2023-04-23T15:49:20.084Z,13.58
2023-04-23T15:51:48.356Z,13.48
2023-04-23T15:54:16.608Z,13.52
2023-04-23T15:56:44.919Z,13.46
2023-04-23T15:59:13.658Z,13.39
2023-04-23T16:01:42.073Z,13.51
2023-04-23T16:04:12.441Z,13.54
2023-04-23T16:06:40.944Z,13.38
2023-04-23T16:09:09.582Z,13.33
2023-04-23T16:11:37.983Z,13.30
2023-04-23T16:14:07.133Z,13.39
2023-04-23T16:16:35.737Z,13.29
2023-04-23T16:19:04.059Z,13.23
2023-04-23T16:21:33.773Z,13.21
2023-04-23T16:24:02.051Z,12.95
2023-04-23T16:26:30.689Z,12.91
2023-04-23T16:29:11.325Z,12.84
2023-04-23T16:31:48.084Z,12.76
2023-04-23T16:34:16.376Z,12.74
2023-04-23T16:36:46.205Z,12.72
2023-04-23T16:39:14.547Z,12.84
2023-04-23T16:41:42.837Z,12.78
2023-04-23T16:44:11.226Z,12.72
2023-04-23T16:46:39.806Z,12.66
2023-04-23T16:49:08.265Z,12.66
2023-04-23T16:51:36.521Z,12.61
2023-04-23T16:54:06.929Z,12.57
2023-04-23T16:56:35.310Z,12.41
2023-04-23T16:59:04.228Z,12.36
2023-04-23T17:01:32.585Z,12.07
2023-04-23T17:04:01.138Z,11.86
2023-04-23T17:06:30.952Z,11.91
2023-04-23T17:09:00.445Z,11.94
2023-04-23T17:11:32.077Z,12.11
2023-04-23T17:14:00.740Z,12.23
2023-04-23T17:16:29.173Z,12.29
2023-04-23T17:18:57.934Z,12.25
2023-04-23T17:21:27.340Z,12.10
2023-04-23T17:23:55.654Z,12.08
2023-04-23T17:26:24.028Z,12.05
2023-04-23T17:28:53.754Z,11.91
2023-04-23T17:31:22.086Z,11.78
2023-04-23T17:33:50.626Z,11.47
2023-04-23T17:36:19.220Z,11.39
2023-04-23T17:38:47.528Z,11.30
2023-04-23T17:41:16.805Z,11.24
2023-04-23T17:43:45.098Z,11.24
2023-04-23T17:46:14.898Z,11.17
2023-04-23T17:48:43.242Z,11.09
2023-04-23T17:51:11.552Z,10.97
2023-04-23T17:53:39.856Z,10.86
2023-04-23T17:56:08.084Z,10.82
2023-04-23T17:58:38.227Z,10.78
2023-04-23T18:01:08.891Z,10.67
2023-04-23T18:03:39.160Z,10.65
2023-04-23T18:06:09.259Z,10.48
2023-04-23T18:08:38.465Z,10.51
2023-04-23T18:11:08.383Z,10.54
2023-04-23T18:13:37.503Z,10.45
2023-04-23T18:16:05.935Z,10.36
2023-04-23T18:18:34.568Z,10.55
2023-04-23T18:21:05.124Z,10.53
2023-04-23T18:23:33.452Z,10.64
2023-04-23T18:26:02.119Z,10.50
2023-04-23T18:28:30.503Z,10.67
2023-04-23T18:31:02.680Z,10.69
2023-04-23T18:33:33.682Z,10.69
2023-04-23T18:36:06.669Z,10.72
2023-04-23T18:38:40.791Z,10.74
2023-04-23T18:41:09.096Z,10.68
2023-04-23T18:43:37.386Z,10.45
2023-04-23T19:39:31.016Z,9.38
2023-04-23T19:41:59.440Z,9.45
2023-04-23T19:44:27.838Z,9.40
2023-04-23T19:46:56.595Z,9.38
2023-04-23T19:49:24.983Z,9.35
2023-04-23T19:51:54.502Z,9.41
2023-04-23T19:54:24.510Z,9.46
2023-04-23T19:56:54.438Z,9.48
2023-04-23T19:59:22.890Z,9.35
2023-04-23T20:01:51.096Z,9.42
2023-04-23T20:04:19.429Z,9.44
2023-04-23T20:06:48.021Z,9.48
2023-04-23T20:09:21.532Z,9.51
2023-04-23T20:11:49.801Z,9.46
2023-04-23T20:14:19.599Z,9.46
2023-04-23T20:16:48.473Z,9.48
2023-04-23T20:19:17.263Z,9.45
2023-04-23T20:21:46.027Z,9.36
2023-04-23T20:24:15.278Z,9.46
2023-04-23T20:26:43.602Z,9.41
2023-04-23T20:29:11.878Z,9.49
2023-04-23T20:31:41.871Z,9.46
2023-04-23T20:34:11.050Z,9.52
2023-04-23T20:36:39.358Z,9.49
2023-04-23T20:39:08.255Z,9.52
2023-04-23T20:41:36.708Z,9.62
2023-04-23T20:44:06.057Z,9.53
2023-04-23T20:46:34.510Z,9.54
2023-04-23T20:49:04.772Z,9.54
2023-04-23T20:51:34.453Z,9.53
2023-04-23T20:54:03.544Z,9.52
2023-04-23T20:56:32.111Z,9.50
2023-04-23T20:59:00.910Z,9.46
2023-04-23T21:01:29.376Z,9.46
2023-04-23T21:04:00.183Z,9.52
2023-04-23T21:06:31.485Z,9.51
2023-04-23T21:09:00.146Z,9.47
2023-04-23T21:11:28.490Z,9.42
2023-04-23T21:13:58.101Z,9.42
2023-04-23T21:16:27.855Z,9.39
2023-04-23T21:18:56.163Z,9.34
2023-04-23T21:21:27.985Z,9.37
2023-04-23T21:23:59.624Z,9.44
2023-04-23T21:26:28.572Z,9.48
2023-04-23T21:28:57.263Z,9.50
2023-04-23T21:31:36.416Z,9.53
2023-04-23T21:34:04.727Z,9.60
2023-04-23T21:36:33.022Z,9.56
2023-04-23T21:39:02.747Z,9.64
2023-04-23T21:41:31.085Z,9.68
2023-04-23T21:43:59.380Z,9.66
2023-04-23T21:46:27.973Z,9.62
2023-04-23T21:48:56.525Z,9.63
2023-04-23T21:51:25.107Z,9.67
2023-04-23T21:53:53.352Z,9.62
2023-04-23T21:56:23.100Z,9.54
2023-04-23T21:58:51.434Z,9.55
2023-04-23T22:01:19.732Z,9.57
2023-04-23T22:03:48.131Z,9.50
2023-04-23T22:06:17.760Z,9.50
2023-04-23T22:08:47.269Z,9.48
2023-04-23T22:11:17.600Z,9.48
2023-04-23T22:13:47.247Z,9.45
2023-04-23T22:16:27.326Z,9.50
2023-04-23T22:18:57.377Z,9.45
2023-04-23T22:21:25.705Z,9.40
2023-04-23T22:23:53.971Z,9.41
2023-04-23T22:26:22.283Z,9.44
2023-04-23T22:28:52.214Z,9.40
2023-04-23T22:31:20.510Z,9.41
2023-04-23T22:33:48.877Z,9.35
2023-04-23T22:36:17.128Z,9.36
2023-04-23T22:38:45.490Z,9.34
2023-04-23T22:41:13.716Z,9.36
2023-04-23T22:43:41.955Z,9.39
2023-04-23T22:46:11.752Z,9.36
2023-04-23T22:48:45.050Z,9.35
2023-04-23T22:51:13.396Z,9.34
2023-04-23T22:53:41.728Z,9.30
2023-04-23T22:56:10.047Z,9.32
2023-04-23T22:58:38.336Z,9.33
2023-04-23T23:01:06.919Z,9.33
2023-04-23T23:03:36.963Z,9.27
2023-04-23T23:06:05.738Z,9.29
2023-04-23T23:08:34.043Z,9.23
2023-04-23T23:11:02.465Z,9.25
2023-04-23T23:13:30.796Z,9.27
2023-04-23T23:16:02.389Z,9.24
2023-04-23T23:18:30.786Z,9.34
2023-04-23T23:21:00.539Z,9.17
2023-04-23T23:23:28.936Z,9.32
2023-04-23T23:25:59.865Z,9.30
2023-04-23T23:28:28.549Z,9.32
2023-04-23T23:30:57.815Z,9.38
2023-04-23T23:33:27.274Z,9.35
2023-04-23T23:35:56.182Z,9.32
2023-04-23T23:38:25.903Z,9.25
2023-04-23T23:40:54.506Z,9.31
2023-04-23T23:43:22.789Z,9.27
2023-04-23T23:45:51.303Z,9.22
2023-04-23T23:48:19.900Z,9.17
2023-04-23T23:50:48.267Z,9.17
2023-04-23T23:53:16.540Z,9.17
2023-04-23T23:55:46.204Z,9.17
2023-04-23T23:58:14.545Z,9.09
